Home > Products > Valid Products > MTR

000
SAUS41 KBOX 200655
MTRMQE
METAR KMQE 200654Z AUTO 23008KT 17/14 A2996 RMK AO1 SLP152 T01670144





000
SAUS41 KBOX 200555
MTRMQE
METAR KMQE 200554Z AUTO 21007KT 16/14 A2997 RMK AO1 SLP155 T01610144
10189 20161 50003





000
SAUS41 KBOX 200456
MTRMQE
METAR KMQE 200454Z AUTO 19008KT 17/13 A2997 RMK AO1 SLP157 T01670133
402560122





000
SAUS41 KBOX 200355
MTRMQE
METAR KMQE 200354Z AUTO 17008KT 17/12 A2997 RMK AO1 SLP155 T01670122





000
SAUS41 KBOX 200255
MTRMQE
METAR KMQE 200254Z AUTO 15007KT 16/12 A2996 RMK AO1 SLP152 T01610122
51007





000
SAUS41 KBOX 200155
MTRMQE
METAR KMQE 200154Z AUTO 14009KT 17/12 A2995 RMK AO1 SLP150 T01720117





000
SAUS41 KBOX 200055
MTRMQE
METAR KMQE 200054Z AUTO 13010KT 18/12 A2995 RMK AO1 SLP149 T01780117





000
SAUS41 KBOX 192355
MTRMQE
METAR KMQE 192354Z AUTO 13008KT 19/12 A2993 RMK AO1 SLP145 T01890122
10256 20189 53007





000
SAUS41 KBOX 192255
MTRMQE
METAR KMQE 192254Z AUTO 11008KT 21/13 A2992 RMK AO1 SLP141 T02060128





000
SAUS41 KBOX 192155
MTRMQE
METAR KMQE 192154Z AUTO 11005KT 23/12 A2992 RMK AO1 SLP140 T02280122





000
SAUS41 KBOX 192055
MTRMQE
METAR KMQE 192054Z AUTO VRB03KT 24/10 A2991 RMK AO1 SLP137 T02440100
55002





000
SAUS41 KBOX 191955
MTRMQE
METAR KMQE 191954Z AUTO 00000KT 25/11 A2991 RMK AO1 SLP135 T02500106





000
SAUS41 KBOX 191855
MTRMQE
METAR KMQE 191854Z AUTO 29007KT 24/10 A2991 RMK AO1 SLP137 T02440100





000
SAUS41 KBOX 191755
MTRMQE
METAR KMQE 191754Z AUTO VRB05KT 23/11 A2992 RMK AO1 SLP139 T02330106
10244 20144 56006





000
SAUS41 KBOX 191655
MTRMQE
METAR KMQE 191654Z AUTO 33007KT 310V030 23/11 A2992 RMK AO1 SLP140
T02330111





000
SAUS41 KBOX 191555
MTRMQE
METAR KMQE 191554Z AUTO 29009G15KT 22/11 A2993 RMK AO1 SLP143
T02170111





000
SAUS41 KBOX 191455
MTRMQE
METAR KMQE 191454Z AUTO 28006KT 21/12 A2994 RMK AO1 SLP145 T02110117
51007





000
SAUS41 KBOX 191403 COR
MTRMQE
METAR KMQE 191354Z AUTO VRB03KT 18/11 A2993 RMK AO1 SLP143 T01830111





000
SAUS41 KBOX 191356
MTRMQE
METAR KMQE 191354Z AUTO VRB03KT 18/11 A2993 RMK AO1 SLP143 T01830111





000
SAUS41 KBOX 191255
MTRMQE
METAR KMQE 191254Z AUTO 32004KT 17/11 A2993 RMK AO1 SLP142 T01670111





000
SAUS41 KBOX 191159
MTRMQE
METAR KMQE 191154Z AUTO 33008KT 14/10 A2992 RMK AO1 SLP139 T01440100
10144 20122 51010





000
SAUS41 KBOX 191059
MTRMQE
METAR KMQE 191054Z AUTO 32008KT 13/09 A2990 RMK AO1 SLP135 T01280094





000
SAUS41 KBOX 190959
MTRMQE
METAR KMQE 190954Z AUTO 33008KT 13/09 A2990 RMK AO1 SLP134 T01280089





000
SAUS41 KBOX 190859
MTRMQE
METAR KMQE 190854Z AUTO 32008KT 13/09 A2989 RMK AO1 SLP128 T01280089
53004





000
SAUS41 KBOX 190759
MTRMQE
METAR KMQE 190754Z AUTO 33008KT 13/09 A2988 RMK AO1 SLP125 T01330094





000
SAUS41 KBOX 190659
MTRMQE
METAR KMQE 190654Z AUTO 32008KT 14/09 A2988 RMK AO1 SLP125 T01390094





000
SAUS41 KBOX 190559
MTRMQE
METAR KMQE 190554Z AUTO 31006KT 13/09 A2988 RMK AO1 SLP124 T01330094
10189 20133 58003





000
SAUS41 KBOX 190459
MTRMQE
METAR KMQE 190454Z AUTO 32007KT 14/09 A2988 RMK AO1 SLP128 T01440094
402500133





000
SAUS41 KBOX 190359
MTRMQE
METAR KMQE 190354Z AUTO 32009KT 15/09 A2989 RMK AO1 SLP129 T01500094





000
SAUS41 KBOX 190259
MTRMQE
METAR KMQE 190254Z AUTO 33006KT 16/09 A2988 RMK AO1 SLP127 T01610089
51012





000
SAUS41 KBOX 190159
MTRMQE
METAR KMQE 190154Z AUTO 34008KT 17/09 A2987 RMK AO1 SLP124 T01720089





000
SAUS41 KBOX 190059
MTRMQE
METAR KMQE 190054Z AUTO 35010KT 18/09 A2986 RMK AO1 SLP120 T01780089





000
SAUS41 KBOX 182359
MTRMQE
METAR KMQE 182354Z AUTO 34007KT 19/09 A2985 RMK AO1 SLP117 T01890089
10250 20189 53014





000
SAUS41 KBOX 182259
MTRMQE
METAR KMQE 182254Z AUTO 31005KT 21/10 A2983 RMK AO1 SLP109 T02110100





000
SAUS41 KBOX 182159
MTRMQE
METAR KMQE 182154Z AUTO 30007KT 23/09 A2982 RMK AO1 SLP104 T02280094





000
SAUS41 KBOX 182055
MTRMQE
METAR KMQE 182054Z AUTO 31007KT 24/09 A2981 RMK AO1 SLP101 T02390094
53001





000
SAUS41 KBOX 181955
MTRMQE
METAR KMQE 181954Z AUTO 33008KT 22/09 A2980 RMK AO1 SLP099 T02220094





000
SAUS41 KBOX 181855
MTRMQE
METAR KMQE 181854Z AUTO 32008G14KT 300V360 24/12 A2980 RMK AO1
SLP099 T02390117





000
SAUS41 KBOX 181755
MTRMQE
METAR KMQE 181754Z AUTO VRB06G15KT 24/12 A2980 RMK AO1 SLP100
T02390122 10244 20161 56008





000
SAUS41 KBOX 181659
MTRMQE
METAR KMQE 181654Z AUTO 33009G15KT 22/11 A2981 RMK AO1 SLP101
T02170111





000
SAUS41 KBOX 181559
MTRMQE
METAR KMQE 181554Z AUTO 27010KT 21/13 A2982 RMK AO1 SLP105 T02110128





000
SAUS41 KBOX 181459
MTRMQE
METAR KMQE 181454Z AUTO 32009KT 21/13 A2983 RMK AO1 SLP109 T02110128
56002





000
SAUS41 KBOX 181359
MTRMQE
METAR KMQE 181354Z AUTO 32012G19KT 21/13 A2983 RMK AO1 SLP109
T02060128





000
SAUS41 KBOX 181259
MTRMQE
METAR KMQE 181254Z AUTO 32012G17KT 19/13 A2983 RMK AO1 SLP110
T01890128





000
SAUS41 KBOX 181159
MTRMQE
METAR KMQE 181154Z AUTO 30007KT 16/13 A2983 RMK AO1 SLP110 T01610128
10161 20133 51010





000
SAUS41 KBOX 181055
MTRMQE
METAR KMQE 181054Z AUTO 31009KT 14/12 A2983 RMK AO1 SLP109 T01390117





000
SAUS41 KBOX 180955
MTRMQE
METAR KMQE 180954Z AUTO 31010KT 14/12 A2982 RMK AO1 SLP104 T01390117





000
SAUS41 KBOX 180855
MTRMQE
METAR KMQE 180854Z AUTO 30009KT 14/12 A2980 RMK AO1 SLP100 T01390122
55001





000
SAUS41 KBOX 180755
MTRMQE
METAR KMQE 180754Z AUTO 30010KT 14/12 A2980 RMK AO1 SLP098 T01440122





000
SAUS41 KBOX 180655
MTRMQE
METAR KMQE 180654Z AUTO 30009KT 15/12 A2980 RMK AO1 SLP100 T01500122





000
SAUS41 KBOX 180555
MTRMQE
METAR KMQE 180554Z AUTO 31011KT 16/12 A2981 RMK AO1 SLP101 T01560122
10200 20156 58010





000
SAUS41 KBOX 180455
MTRMQE
METAR KMQE 180454Z AUTO 31011KT 16/12 A2982 RMK AO1 SLP105 T01610117
402560156





000
SAUS41 KBOX 180355
MTRMQE
METAR KMQE 180354Z AUTO 30007KT 16/12 A2984 RMK AO1 SLP111 T01610117





000
SAUS41 KBOX 180255
MTRMQE
METAR KMQE 180254Z AUTO 31008KT 17/12 A2984 RMK AO1 SLP112 T01670117
50010





000
SAUS41 KBOX 180155
MTRMQE
METAR KMQE 180154Z AUTO 31007KT 18/12 A2984 RMK AO1 SLP112 T01780117





000
SAUS41 KBOX 180055
MTRMQE
METAR KMQE 180054Z AUTO 33009KT 19/11 A2983 RMK AO1 SLP110 T01890111





000
SAUS41 KBOX 172355
MTRMQE
METAR KMQE 172354Z AUTO 32010G16KT 20/13 A2981 RMK AO1 SLP102
T02000128 10256 20200 53008





000
SAUS41 KBOX 172255
MTRMQE
METAR KMQE 172254Z AUTO 33010G16KT 22/14 A2980 RMK AO1 SLP098
T02170144





000
SAUS41 KBOX 172155
MTRMQE
METAR KMQE 172154Z AUTO 32009G15KT 22/14 A2979 RMK AO1 SLP095
T02220139





000
SAUS41 KBOX 172055
MTRMQE
METAR KMQE 172054Z AUTO 31014G17KT 23/14 A2978 RMK AO1 SLP093
T02330144 55001





000
SAUS41 KBOX 171955
MTRMQE
METAR KMQE 171954Z AUTO 27013G18KT 24/14 A2977 RMK AO1 SLP089
T02390144





000
SAUS41 KBOX 171855
MTRMQE
METAR KMQE 171854Z AUTO 29010G16KT 25/16 A2978 RMK AO1 SLP092
T02500161





000
SAUS41 KBOX 171755
MTRMQE
METAR KMQE 171754Z AUTO 28010KT 24/16 A2979 RMK AO1 SLP093 T02390161
10256 20183 56012





000
SAUS41 KBOX 171655
MTRMQE
METAR KMQE 171654Z AUTO 22009KT 26/16 A2979 RMK AO1 SLP094 T02560161





000
SAUS41 KBOX 171555
MTRMQE
METAR KMQE 171554Z AUTO 25004KT 24/15 A2981 RMK AO1 SLP100 T02390150





000
SAUS41 KBOX 171455
MTRMQE
METAR KMQE 171454Z AUTO 26009KT 22/14 A2982 RMK AO1 SLP106 T02220144
56009





000
SAUS41 KBOX 171355
MTRMQE
METAR KMQE 171354Z AUTO 25010KT 22/14 A2983 RMK AO1 SLP108 T02220144





000
SAUS41 KBOX 171255
MTRMQE
METAR KMQE 171254Z AUTO 23007KT 21/15 A2984 RMK AO1 SLP111 T02060150





000
SAUS41 KBOX 171155
MTRMQE
METAR KMQE 171154Z AUTO 21009KT 18/16 A2985 RMK AO1 SLP115 T01830161
10183 20167 56003





000
SAUS41 KBOX 171055
MTRMQE
METAR KMQE 171054Z AUTO 22008KT 17/16 A2985 RMK AO1 SLP116 T01720161





000
SAUS41 KBOX 170955
MTRMQE
METAR KMQE 170954Z AUTO 22008KT 17/16 A2985 RMK AO1 SLP115 T01670161





000
SAUS41 KBOX 170855
MTRMQE
METAR KMQE 170854Z AUTO 21005KT 17/17 A2986 RMK AO1 SLP119 T01670167
56010





000
SAUS41 KBOX 170755
MTRMQE
METAR KMQE 170754Z AUTO 20008KT 17/17 A2986 RMK AO1 SLP120 T01720167





    US Dept of Commerce
    National Oceanic and Atmospheric Administration
    National Weather Service
    1325 East West Highway
    Silver Spring, MD 20910
    Page Author: NWS Internet Services Team
Disclaimer
Information Quality
Credits
Glossary
Privacy Policy
Freedom of Information Act (FOIA)
About Us
Career Opportunities